Time;durP1;ratioP1;P1;durP2;ratioP2;P2;SDS_P1;SDS_P2;PMS_P1;PMS_P2;Temp;Humidity;BMP_temperature;BMP_pressure;BME280_temperature;BME280_humidity;BME280_pressure;Samples;Min_cycle;Max_cycle;Signal;HPM_P1;HPM_P2
2023/11/23 00:00:20;;;;;;;;;;;;;;;9.43;55.93;101415.06;5107759;28;20404;-78
2023/11/23 00:03:12;;;;;;;;;;;;;;;9.26;56.86;101417.44;5098688;28;19911;-78
2023/11/23 00:06:04;;;;;;;;;;;;;;;9.12;57.52;101416.50;5110777;28;19916;-78
2023/11/23 00:08:56;;;;;;;;;;;;;;;9.20;56.97;101420.47;5093072;28;20388;-78
2023/11/23 00:11:48;;;;;;;;;;;;;;;9.69;55.64;101414.72;5080107;28;19916;-79
2023/11/23 00:14:37;;;;;;;;;;;;;;;9.39;56.30;101405.06;5095544;28;19912;-78
2023/11/23 00:17:29;;;;;;;;;;;;;;;9.07;57.25;101402.19;5106973;28;19916;-79
2023/11/23 00:20:21;;;;;;;;;;;;;;;9.04;58.10;101410.91;5097129;28;19912;-79
2023/11/23 00:23:11;;;;;;;;;;;;;;;9.03;58.04;101418.22;5080944;28;19912;-80
2023/11/23 00:26:03;;;;;;;;;;;;;;;8.95;58.37;101421.56;5098682;28;20394;-80
2023/11/23 00:28:55;;;;;;;;;;;;;;;9.15;57.47;101410.50;5093922;28;19916;-80
2023/11/23 00:31:47;;;;;;;;;;;;;;;9.35;56.98;101412.97;5108061;28;20300;-80
2023/11/23 00:34:38;;;;;;;;;;;;;;;9.51;55.60;101410.88;5098141;28;19912;-80
2023/11/23 00:37:30;;;;;;;;;;;;;;;9.30;56.45;101410.31;5095239;28;20391;-80
2023/11/23 00:40:22;;;;;;;;;;;;;;;9.14;57.80;101408.09;5093502;28;19912;-79
2023/11/23 00:43:14;;;;;;;;;;;;;;;9.17;56.62;101405.59;5096793;28;19935;-80
2023/11/23 00:46:09;;;;;;;;;;;;;;;8.93;57.32;101411.00;5081135;28;20391;-80
2023/11/23 00:48:59;;;;;;;;;;;;;;;9.09;58.46;101411.66;5098053;28;19915;-80
2023/11/23 00:51:51;;;;;;;;;;;;;;;9.67;55.65;101414.22;5106796;28;19920;-79
2023/11/23 00:54:43;;;;;;;;;;;;;;;9.69;55.82;101409.31;5093999;28;19912;-79
2023/11/23 00:57:35;;;;;;;;;;;;;;;9.49;56.24;101413.09;5098034;28;19916;-79
2023/11/23 01:00:27;;;;;;;;;;;;;;;9.61;56.51;101415.38;5093903;28;19916;-80
2023/11/23 01:03:19;;;;;;;;;;;;;;;9.55;55.98;101417.34;5092730;28;19912;-79
2023/11/23 01:06:11;;;;;;;;;;;;;;;9.78;56.26;101435.50;5093442;28;19912;-79
2023/11/23 01:09:03;;;;;;;;;;;;;;;9.45;56.89;101434.56;5094194;28;19912;-79
2023/11/23 01:11:55;;;;;;;;;;;;;;;9.07;57.76;101446.41;5092670;28;19920;-81
2023/11/23 01:14:44;;;;;;;;;;;;;;;9.19;57.27;101446.81;5095953;28;19920;-80
2023/11/23 01:17:36;;;;;;;;;;;;;;;8.96;57.45;101436.75;5087546;28;19913;-81
2023/11/23 01:20:28;;;;;;;;;;;;;;;9.06;57.52;101444.78;5095663;28;19912;-81
2023/11/23 01:23:20;;;;;;;;;;;;;;;9.05;57.75;101445.88;5081136;28;20455;-81
2023/11/23 01:26:12;;;;;;;;;;;;;;;9.42;55.72;101447.91;5092478;28;19912;-80
2023/11/23 01:29:02;;;;;;;;;;;;;;;9.31;55.54;101459.97;5096377;28;19912;-80
2023/11/23 01:31:53;;;;;;;;;;;;;;;8.95;57.44;101449.50;5106122;28;19915;-80
2023/11/23 01:34:48;;;;;;;;;;;;;;;9.19;55.96;101451.44;5097366;28;20292;-80
2023/11/23 01:37:38;;;;;;;;;;;;;;;9.09;56.62;101449.66;5109278;28;19911;-81
2023/11/23 01:40:30;;;;;;;;;;;;;;;9.25;55.25;101452.97;5092795;28;19911;-80
2023/11/23 01:43:22;;;;;;;;;;;;;;;9.32;55.18;101448.84;5111064;28;20304;-80
2023/11/23 01:46:14;;;;;;;;;;;;;;;9.42;53.95;101437.06;5094402;28;19912;-80
2023/11/23 01:49:07;;;;;;;;;;;;;;;9.20;54.65;101448.41;5105874;28;19912;-80
2023/11/23 01:51:59;;;;;;;;;;;;;;;8.97;55.81;101441.06;5081746;28;19916;-80
2023/11/23 01:54:51;;;;;;;;;;;;;;;9.15;55.56;101437.63;5093590;28;19916;-79
2023/11/23 01:57:43;;;;;;;;;;;;;;;9.14;56.02;101437.94;5111392;28;19912;-80
2023/11/23 02:00:32;;;;;;;;;;;;;;;9.28;55.31;101434.25;5094709;28;19912;-79
2023/11/23 02:03:24;;;;;;;;;;;;;;;9.24;55.22;101438.63;5078444;28;19912;-80
2023/11/23 02:06:16;;;;;;;;;;;;;;;9.33;54.43;101436.91;5096239;28;20269;-79
2023/11/23 02:09:08;;;;;;;;;;;;;;;8.98;56.11;101440.00;5094179;28;20376;-80
2023/11/23 02:12:00;;;;;;;;;;;;;;;8.68;57.60;101440.28;5105474;28;19924;-79
2023/11/23 02:14:55;;;;;;;;;;;;;;;8.98;56.68;101423.72;5095041;28;19912;-78
2023/11/23 02:17:47;;;;;;;;;;;;;;;8.90;56.54;101437.88;5106976;28;19916;-79
2023/11/23 02:20:39;;;;;;;;;;;;;;;9.14;56.09;101444.16;5093955;28;19912;-79
2023/11/23 02:23:31;;;;;;;;;;;;;;;9.19;56.06;101444.13;5108745;28;19912;-80
2023/11/23 02:26:23;;;;;;;;;;;;;;;9.23;55.31;101445.16;5105114;28;19916;-79
2023/11/23 02:29:15;;;;;;;;;;;;;;;9.26;55.21;101449.19;5105087;28;20376;-80
2023/11/23 02:32:10;;;;;;;;;;;;;;;9.09;55.88;101438.78;5079494;28;20376;-80
2023/11/23 02:35:02;;;;;;;;;;;;;;;9.18;55.26;101447.09;5105066;28;19912;-79
2023/11/23 02:37:55;;;;;;;;;;;;;;;9.06;55.29;101442.06;5090671;28;20380;-80
2023/11/23 02:40:47;;;;;;;;;;;;;;;9.20;55.06;101434.84;5104978;28;19916;-80
2023/11/23 02:43:38;;;;;;;;;;;;;;;9.20;54.66;101434.03;5096109;28;19912;-80
2023/11/23 02:46:30;;;;;;;;;;;;;;;9.08;54.74;101431.75;5108309;28;19912;-80
2023/11/23 02:49:22;;;;;;;;;;;;;;;8.77;54.85;101425.00;5091557;28;20384;-81
2023/11/23 02:52:14;;;;;;;;;;;;;;;8.42;55.70;101434.25;5091689;28;19916;-80
2023/11/23 02:55:06;;;;;;;;;;;;;;;8.29;56.26;101438.38;5093213;28;19911;-79
2023/11/23 02:57:56;;;;;;;;;;;;;;;8.31;55.90;101438.94;5104241;28;19912;-79
2023/11/23 03:00:48;;;;;;;;;;;;;;;8.15;56.69;101435.50;5104687;28;20396;-80
2023/11/23 03:03:41;;;;;;;;;;;;;;;7.95;57.00;101438.31;5078207;28;20288;-79
2023/11/23 03:06:32;;;;;;;;;;;;;;;7.95;57.36;101442.94;5095925;28;19919;-80
2023/11/23 03:09:22;;;;;;;;;;;;;;;8.20;57.35;101440.06;5079845;28;19941;-79
2023/11/23 03:12:19;;;;;;;;;;;;;;;8.46;56.34;101441.53;5104022;28;19920;-80
2023/11/23 03:15:11;;;;;;;;;;;;;;;8.22;55.48;101437.06;5095098;28;19912;-80
2023/11/23 03:18:06;;;;;;;;;;;;;;;8.22;55.58;101428.94;5104267;28;19911;-80
2023/11/23 03:20:59;;;;;;;;;;;;;;;8.41;55.41;101436.16;5090440;28;19916;-80
2023/11/23 03:23:50;;;;;;;;;;;;;;;8.15;56.33;101434.69;5079938;28;19916;-79
2023/11/23 03:26:42;;;;;;;;;;;;;;;8.11;56.78;101430.91;5079075;28;19912;-80
2023/11/23 03:29:34;;;;;;;;;;;;;;;8.39;56.10;101429.38;5095203;28;20380;-79
2023/11/23 03:32:26;;;;;;;;;;;;;;;8.20;55.86;101431.13;5093216;28;19915;-79
2023/11/23 03:35:18;;;;;;;;;;;;;;;7.79;57.36;101430.56;5091269;28;19912;-80
2023/11/23 03:38:10;;;;;;;;;;;;;;;7.76;57.69;101439.25;5091045;28;19912;-80
2023/11/23 03:41:02;;;;;;;;;;;;;;;7.69;57.38;101429.53;5104315;28;19912;-79
2023/11/23 03:43:54;;;;;;;;;;;;;;;7.88;56.79;101426.97;5091322;28;20300;-80
2023/11/23 03:46:46;;;;;;;;;;;;;;;7.71;56.51;101431.97;5079079;28;19912;-80
2023/11/23 03:49:38;;;;;;;;;;;;;;;8.10;56.57;101432.81;5090649;28;19916;-79
2023/11/23 03:52:30;;;;;;;;;;;;;;;7.94;56.49;101435.88;5080972;28;19920;-80
2023/11/23 03:55:22;;;;;;;;;;;;;;;7.87;57.22;101433.50;5092756;28;19912;-81
2023/11/23 03:58:14;;;;;;;;;;;;;;;7.84;56.89;101433.25;5093508;28;19912;-80
2023/11/23 04:01:05;;;;;;;;;;;;;;;7.86;57.94;101433.78;5095711;28;19915;-80
2023/11/23 04:03:57;;;;;;;;;;;;;;;7.88;57.42;101434.28;5094808;28;19912;-80
2023/11/23 04:06:49;;;;;;;;;;;;;;;7.99;57.31;101435.84;5094291;28;19912;-81
2023/11/23 04:09:38;;;;;;;;;;;;;;;8.33;56.67;101444.09;5107950;28;20385;-80
2023/11/23 04:12:30;;;;;;;;;;;;;;;8.22;56.44;101451.44;5095106;28;20376;-80
2023/11/23 04:15:22;;;;;;;;;;;;;;;8.21;57.25;101459.84;5098805;28;19912;-81
2023/11/23 04:18:15;;;;;;;;;;;;;;;8.12;56.69;101456.91;5094302;28;20384;-80
2023/11/23 04:21:07;;;;;;;;;;;;;;;8.00;56.89;101443.72;5089804;28;20523;-80
2023/11/23 04:23:59;;;;;;;;;;;;;;;8.03;57.89;101445.03;5083667;28;19919;-80
2023/11/23 04:26:51;;;;;;;;;;;;;;;8.03;56.55;101447.75;5093211;28;19920;-81
2023/11/23 04:29:42;;;;;;;;;;;;;;;8.02;57.41;101446.16;5094351;28;19912;-80
2023/11/23 04:32:34;;;;;;;;;;;;;;;7.64;57.83;101448.50;5096918;28;19916;-81
2023/11/23 04:35:26;;;;;;;;;;;;;;;7.90;58.50;101459.19;5094901;28;19916;-80
2023/11/23 04:38:18;;;;;;;;;;;;;;;7.60;57.77;101450.16;5092890;28;19935;-80
2023/11/23 04:41:08;;;;;;;;;;;;;;;7.47;59.37;101461.53;5080732;28;20284;-79
2023/11/23 04:44:00;;;;;;;;;;;;;;;7.48;58.69;101462.34;5094087;28;20380;-80
2023/11/23 04:46:49;;;;;;;;;;;;;;;7.17;59.43;101462.44;5082607;28;19912;-80
2023/11/23 04:49:41;;;;;;;;;;;;;;;7.42;58.59;101463.44;5094792;28;20300;-79
2023/11/23 04:52:33;;;;;;;;;;;;;;;7.18;60.23;101458.66;5079019;28;19916;-79
2023/11/23 04:55:25;;;;;;;;;;;;;;;7.20;60.02;101458.41;5096557;28;19912;-80
2023/11/23 04:58:17;;;;;;;;;;;;;;;7.06;60.46;101451.94;5079975;28;19912;-80
2023/11/23 05:01:09;;;;;;;;;;;;;;;7.27;59.83;101467.00;5093152;28;19912;-81
2023/11/23 05:04:02;;;;;;;;;;;;;;;7.73;57.68;101454.94;5095936;28;20373;-80
2023/11/23 05:06:53;;;;;;;;;;;;;;;7.38;59.14;101463.19;5098119;28;19912;-82
2023/11/23 05:09:44;;;;;;;;;;;;;;;7.45;59.03;101468.34;5085830;28;19920;-80
2023/11/23 05:12:41;;;;;;;;;;;;;;;7.37;59.22;101472.41;5091740;28;19916;-80
2023/11/23 05:15:33;;;;;;;;;;;;;;;7.33;59.49;101482.16;5097680;28;19916;-81
2023/11/23 05:18:25;;;;;;;;;;;;;;;7.27;59.05;101477.84;5095720;28;19912;-81
2023/11/23 05:21:17;;;;;;;;;;;;;;;7.37;59.02;101482.41;5092449;28;19916;-80
2023/11/23 05:24:06;;;;;;;;;;;;;;;7.33;59.17;101479.44;5095096;28;19916;-80
2023/11/23 05:26:55;;;;;;;;;;;;;;;7.45;59.39;101479.97;5080366;28;20392;-80
2023/11/23 05:29:47;;;;;;;;;;;;;;;7.55;58.54;101473.72;5092080;28;19916;-80
2023/11/23 05:32:40;;;;;;;;;;;;;;;7.42;59.09;101485.91;5096524;28;19945;-81
2023/11/23 05:35:30;;;;;;;;;;;;;;;7.32;58.97;101486.75;5080488;28;19916;-81
2023/11/23 05:38:22;;;;;;;;;;;;;;;7.41;59.21;101483.50;5092208;28;19916;-80
2023/11/23 05:41:14;;;;;;;;;;;;;;;7.17;59.19;101486.78;5095122;28;19911;-80
2023/11/23 05:44:06;;;;;;;;;;;;;;;7.20;58.88;101478.16;5093358;28;19920;-80
2023/11/23 05:46:59;;;;;;;;;;;;;;;7.12;59.66;101480.56;5105425;28;19924;-80
2023/11/23 05:49:51;;;;;;;;;;;;;;;7.21;59.03;101481.66;5108728;28;20292;-80
2023/11/23 05:52:43;;;;;;;;;;;;;;;6.94;59.80;101478.44;5092554;28;19920;-80
2023/11/23 05:55:35;;;;;;;;;;;;;;;6.85;59.95;101461.97;5096342;28;19912;-79
2023/11/23 05:58:28;;;;;;;;;;;;;;;6.84;60.55;101455.75;5093781;28;19916;-80
2023/11/23 06:01:20;;;;;;;;;;;;;;;7.20;59.85;101448.38;5076893;28;19912;-81
2023/11/23 06:04:12;;;;;;;;;;;;;;;7.22;59.30;101453.50;5091369;28;19912;-81
2023/11/23 06:07:01;;;;;;;;;;;;;;;7.33;58.08;101455.09;5091288;28;19912;-80
2023/11/23 06:09:53;;;;;;;;;;;;;;;7.26;59.73;101455.38;5082614;28;20390;-81
2023/11/23 06:12:46;;;;;;;;;;;;;;;7.45;58.70;101471.84;5082568;28;19916;-80
2023/11/23 06:15:40;;;;;;;;;;;;;;;7.59;57.55;101480.19;5092280;28;19912;-79
2023/11/23 06:18:36;;;;;;;;;;;;;;;7.43;57.87;101482.13;5094403;28;19912;-80
2023/11/23 06:21:27;;;;;;;;;;;;;;;7.32;58.50;101494.88;5091734;28;19924;-78
2023/11/23 06:24:19;;;;;;;;;;;;;;;7.18;59.17;101491.13;5092139;28;19916;-78
2023/11/23 06:27:11;;;;;;;;;;;;;;;7.10;58.99;101488.97;5093782;28;20381;-79
2023/11/23 06:30:03;;;;;;;;;;;;;;;7.09;60.21;101494.66;5092001;28;19916;-79
2023/11/23 06:32:56;;;;;;;;;;;;;;;7.43;59.03;101487.53;5095895;28;19915;-78
2023/11/23 06:35:49;;;;;;;;;;;;;;;7.74;58.21;101489.06;5093456;28;19920;-78
2023/11/23 06:38:41;;;;;;;;;;;;;;;7.60;58.53;101482.63;5104684;28;19930;-79
2023/11/23 06:41:33;;;;;;;;;;;;;;;7.38;58.77;101484.84;5091910;28;19912;-80
2023/11/23 06:44:25;;;;;;;;;;;;;;;7.22;59.16;101484.06;5090727;28;19912;-79
2023/11/23 06:47:17;;;;;;;;;;;;;;;7.13;60.53;101490.31;5091294;28;20542;-80
2023/11/23 06:50:09;;;;;;;;;;;;;;;7.22;60.24;101492.19;5080277;28;19916;-79
2023/11/23 06:53:01;;;;;;;;;;;;;;;7.53;59.95;101501.03;5097663;28;19916;-80
2023/11/23 06:55:53;;;;;;;;;;;;;;;7.50;59.40;101498.09;5081873;28;19912;-80
2023/11/23 06:58:43;;;;;;;;;;;;;;;7.32;60.82;101499.47;5091401;28;19916;-80
2023/11/23 07:01:34;;;;;;;;;;;;;;;7.29;61.49;101486.50;5091115;28;20476;-79
2023/11/23 07:04:26;;;;;;;;;;;;;;;7.28;61.34;101485.69;5097664;28;19912;-80
2023/11/23 07:07:18;;;;;;;;;;;;;;;7.39;60.39;101475.66;5106612;28;20296;-80
2023/11/23 07:10:10;;;;;;;;;;;;;;;7.59;58.85;101478.28;5092163;28;19916;-80
2023/11/23 07:13:04;;;;;;;;;;;;;;;7.81;57.99;101477.94;5090601;28;19915;-78
2023/11/23 07:15:59;;;;;;;;;;;;;;;7.61;57.94;101472.59;5089801;28;19912;-82
2023/11/23 07:18:51;;;;;;;;;;;;;;;7.20;58.83;101471.91;5095527;28;19916;-81
2023/11/23 07:21:46;;;;;;;;;;;;;;;7.09;58.55;101470.31;5090171;28;20380;-81
2023/11/23 07:24:39;;;;;;;;;;;;;;;7.07;58.68;101472.47;5093451;28;19912;-80
2023/11/23 07:27:31;;;;;;;;;;;;;;;7.05;58.74;101474.66;5094495;28;19915;-82
2023/11/23 07:30:23;;;;;;;;;;;;;;;7.89;64.78;101476.53;5079965;28;19912;-80
2023/11/23 07:33:15;;;;;;;;;;;;;;;10.00;61.13;101475.72;5105497;28;20365;-81
2023/11/23 07:36:07;;;;;;;;;;;;;;;10.96;55.99;101476.16;5097468;28;20320;-83
2023/11/23 07:38:59;;;;;;;;;;;;;;;11.96;52.85;101478.81;5101195;28;20300;-83
2023/11/23 07:41:51;;;;;;;;;;;;;;;12.35;48.98;101469.22;5095915;28;19915;-81
2023/11/23 07:44:43;;;;;;;;;;;;;;;12.65;46.20;101476.66;5087018;28;19912;-82
2023/11/23 07:47:32;;;;;;;;;;;;;;;12.85;44.86;101481.63;5089999;28;20377;-83
2023/11/23 07:50:24;;;;;;;;;;;;;;;13.20;44.14;101485.41;5097757;28;19912;-81
2023/11/23 07:53:12;;;;;;;;;;;;;;;13.34;42.93;101500.91;5095961;28;19920;-82
2023/11/23 07:56:03;;;;;;;;;;;;;;;13.38;41.79;101497.22;5102119;28;19912;-83
2023/11/23 07:58:56;;;;;;;;;;;;;;;13.37;40.24;101502.97;5093989;28;19912;-81
2023/11/23 08:01:45;;;;;;;;;;;;;;;13.31;40.28;101501.53;5095881;28;19912;-81
2023/11/23 08:04:37;;;;;;;;;;;;;;;10.60;43.52;101484.09;5098619;28;19912;-84
2023/11/23 08:07:27;;;;;;;;;;;;;;;9.74;45.85;101488.00;5096189;28;19915;-82
2023/11/23 08:10:19;;;;;;;;;;;;;;;9.28;47.46;101496.66;5093715;28;19916;-81
2023/11/23 08:13:14;;;;;;;;;;;;;;;9.20;47.67;101501.88;5093573;28;19916;-81
2023/11/23 08:16:06;;;;;;;;;;;;;;;9.21;47.89;101507.03;5094545;28;19911;-81
2023/11/23 08:18:58;;;;;;;;;;;;;;;9.24;48.04;101501.03;5113760;28;19920;-84
2023/11/23 08:22:08;;;;;;;;;;;;;;;9.20;48.03;101493.75;6135865;22;19926;31
2023/11/23 08:25:01;;;;;;;;;;;;;;;9.19;48.15;101484.81;4995787;28;20386;-80
2023/11/23 08:27:53;;;;;;;;;;;;;;;9.23;47.93;101491.28;5012115;28;20387;-79
2023/11/23 08:30:40;;;;;;;;;;;;;;;9.17;48.64;101489.72;4996013;28;19914;-82
2023/11/23 08:33:32;;;;;;;;;;;;;;;9.19;48.61;101487.53;4998909;28;19914;-79
2023/11/23 08:36:19;;;;;;;;;;;;;;;9.27;48.57;101484.19;4996815;28;19914;-78
2023/11/23 08:39:08;;;;;;;;;;;;;;;9.36;48.81;101482.44;4994869;28;19914;-79
2023/11/23 08:42:03;;;;;;;;;;;;;;;9.48;47.63;101489.38;4993324;28;20307;-79
2023/11/23 08:44:52;;;;;;;;;;;;;;;9.54;47.65;101472.75;5009913;28;20469;-79
2023/11/23 08:47:42;;;;;;;;;;;;;;;9.59;47.14;101474.59;4993823;28;19914;-79
2023/11/23 08:50:31;;;;;;;;;;;;;;;9.66;47.58;101478.56;4996525;28;19913;-80
2023/11/23 08:53:23;;;;;;;;;;;;;;;9.69;47.64;101471.75;4995690;28;19922;-79
2023/11/23 08:56:15;;;;;;;;;;;;;;;9.83;49.64;101475.38;4994011;28;19914;-79
2023/11/23 08:59:08;;;;;;;;;;;;;;;9.97;51.28;101486.31;5006672;28;19913;-79
2023/11/23 09:02:01;;;;;;;;;;;;;;;10.17;52.34;101483.38;4994058;28;19914;-79
2023/11/23 09:04:53;;;;;;;;;;;;;;;10.25;53.22;101471.84;4998636;28;20470;-79
2023/11/23 09:07:45;;;;;;;;;;;;;;;10.42;53.60;101465.88;4996692;28;20302;-79
2023/11/23 09:10:35;;;;;;;;;;;;;;;10.55;53.94;101473.28;4993928;28;19913;-79
2023/11/23 09:13:30;;;;;;;;;;;;;;;10.69;55.01;101477.69;4997057;28;19914;-79
2023/11/23 09:16:20;;;;;;;;;;;;;;;10.74;55.83;101487.66;4993776;28;19914;-76
2023/11/23 09:19:12;;;;;;;;;;;;;;;10.81;56.27;101492.72;4993082;28;19918;-80
2023/11/23 09:22:04;;;;;;;;;;;;;;;10.93;56.64;101491.13;4993707;28;19925;-79
2023/11/23 09:24:56;;;;;;;;;;;;;;;10.95;56.73;101490.84;4994127;28;20383;-77
2023/11/23 09:27:46;;;;;;;;;;;;;;;11.00;53.02;101477.16;5011168;28;19913;-76
2023/11/23 09:30:38;;;;;;;;;;;;;;;11.14;53.00;101483.44;4993455;28;19914;-79
2023/11/23 09:33:30;;;;;;;;;;;;;;;11.22;51.22;101487.38;4993208;28;19917;-79
2023/11/23 09:36:20;;;;;;;;;;;;;;;11.31;50.37;101486.38;4993377;28;19917;-79
2023/11/23 09:39:14;;;;;;;;;;;;;;;11.34;49.12;101469.44;4993209;28;19914;-79
2023/11/23 09:42:07;;;;;;;;;;;;;;;11.33;48.85;101467.00;4991850;28;20326;-79
2023/11/23 09:45:00;;;;;;;;;;;;;;;11.28;48.66;101470.63;4995674;28;19917;-79
2023/11/23 09:47:55;;;;;;;;;;;;;;;11.49;49.48;101463.69;4992784;28;19914;-79
2023/11/23 09:50:47;;;;;;;;;;;;;;;11.46;49.49;101471.66;4994727;28;20290;-79
2023/11/23 09:53:39;;;;;;;;;;;;;;;11.42;48.52;101473.38;4991711;28;19913;-79
2023/11/23 09:56:30;;;;;;;;;;;;;;;11.41;48.30;101477.22;4993002;28;19914;-79
2023/11/23 09:59:22;;;;;;;;;;;;;;;11.42;49.09;101478.84;4995971;28;20367;-79
2023/11/23 10:02:14;;;;;;;;;;;;;;;11.58;48.45;101474.69;4991873;28;19921;-79
2023/11/23 10:05:07;;;;;;;;;;;;;;;11.51;48.96;101472.38;5005368;28;19914;-79
2023/11/23 10:07:59;;;;;;;;;;;;;;;11.62;47.86;101462.09;4994679;28;19913;-79
2023/11/23 10:10:51;;;;;;;;;;;;;;;11.54;48.90;101476.41;4993145;28;20303;-79
2023/11/23 10:13:43;;;;;;;;;;;;;;;11.72;49.67;101469.25;4992739;28;19913;-79
2023/11/23 10:16:35;;;;;;;;;;;;;;;11.68;49.72;101460.88;4991666;28;19917;-80
2023/11/23 10:19:26;;;;;;;;;;;;;;;11.74;50.03;101458.84;4992575;28;19913;-79
2023/11/23 10:22:18;;;;;;;;;;;;;;;11.71;49.29;101454.00;4995696;28;19918;-79
2023/11/23 10:25:10;;;;;;;;;;;;;;;11.74;50.01;101454.22;4992922;28;20371;-79
2023/11/23 10:28:02;;;;;;;;;;;;;;;11.79;50.10;101440.47;4987404;28;20286;-79
2023/11/23 10:30:51;;;;;;;;;;;;;;;11.72;50.78;101440.06;4972110;28;19914;-78
2023/11/23 10:33:41;;;;;;;;;;;;;;;11.83;51.24;101429.81;4973007;28;19914;-79
2023/11/23 10:36:33;;;;;;;;;;;;;;;11.92;50.51;101417.88;4977216;28;19914;-78
2023/11/23 10:39:25;;;;;;;;;;;;;;;11.79;51.14;101407.78;4972943;28;19914;-79
2023/11/23 10:42:19;;;;;;;;;;;;;;;11.82;51.09;101407.19;4996435;28;19913;-78
2023/11/23 10:45:12;;;;;;;;;;;;;;;11.97;51.59;101408.75;5004086;28;20561;-77
2023/11/23 10:48:01;;;;;;;;;;;;;;;12.17;51.26;101404.75;4972806;28;19914;-76
2023/11/23 10:50:54;;;;;;;;;;;;;;;12.24;50.95;101407.88;4971410;28;20482;-79
2023/11/23 10:53:46;;;;;;;;;;;;;;;12.10;51.15;101401.63;4972827;28;19914;-79
2023/11/23 10:56:39;;;;;;;;;;;;;;;12.23;50.57;101390.69;4971831;28;19914;-79
2023/11/23 10:59:32;;;;;;;;;;;;;;;12.26;49.88;101392.81;4978914;28;19925;-78
2023/11/23 11:02:24;;;;;;;;;;;;;;;12.41;50.17;101386.16;4993691;28;19914;-79
2023/11/23 11:05:28;;;;;;;;;;;;;;;12.42;49.88;101393.22;4992164;28;19914;-79
2023/11/23 11:08:21;;;;;;;;;;;;;;;12.50;50.65;101383.47;4990573;28;19913;-79
2023/11/23 11:11:13;;;;;;;;;;;;;;;12.48;50.49;101374.81;4992458;28;19917;-79
2023/11/23 11:14:05;;;;;;;;;;;;;;;12.65;50.64;101374.91;5015667;28;19922;-78
2023/11/23 11:17:02;;;;;;;;;;;;;;;12.61;50.05;101369.28;4995861;28;19943;-78
2023/11/23 11:19:59;;;;;;;;;;;;;;;12.62;50.65;101362.72;4995130;28;19914;-78
2023/11/23 11:23:00;;;;;;;;;;;;;;;12.76;51.12;101360.69;5012414;28;19921;-78
2023/11/23 11:25:53;;;;;;;;;;;;;;;12.49;50.93;101347.25;5010078;28;19914;-78
2023/11/23 11:28:45;;;;;;;;;;;;;;;12.61;51.26;101347.44;4999197;28;19914;-79
2023/11/23 11:31:41;;;;;;;;;;;;;;;12.65;51.07;101342.97;4994900;28;20399;-78
2023/11/23 11:34:34;;;;;;;;;;;;;;;12.76;50.50;101338.84;4995502;28;20371;-78
2023/11/23 11:37:26;;;;;;;;;;;;;;;12.66;49.81;101328.22;4998155;28;19914;-79
2023/11/23 11:40:19;;;;;;;;;;;;;;;12.66;49.68;101322.75;5010202;28;19918;-78
2023/11/23 11:43:11;;;;;;;;;;;;;;;12.81;50.31;101321.53;4992594;28;20298;-78
2023/11/23 11:46:01;;;;;;;;;;;;;;;12.91;49.71;101323.97;5002625;28;19917;-78
2023/11/23 11:48:50;;;;;;;;;;;;;;;12.83;49.42;101313.84;4984740;28;19918;-78
2023/11/23 11:51:43;;;;;;;;;;;;;;;12.97;50.07;101311.81;4989262;28;19913;-78
2023/11/23 11:54:35;;;;;;;;;;;;;;;13.14;50.39;101300.97;4995191;28;19914;-78
2023/11/23 11:57:25;;;;;;;;;;;;;;;13.06;49.80;101303.63;5008322;28;19914;-77
2023/11/23 12:00:17;;;;;;;;;;;;;;;13.16;49.16;101297.91;4995825;28;20306;-78
2023/11/23 12:03:09;;;;;;;;;;;;;;;13.22;49.87;101302.09;5010084;28;19922;-75
2023/11/23 12:06:01;;;;;;;;;;;;;;;13.37;49.91;101300.81;4994131;28;19913;-78
2023/11/23 12:08:53;;;;;;;;;;;;;;;13.24;48.10;101294.41;5010887;28;19913;-78
2023/11/23 12:11:45;;;;;;;;;;;;;;;13.31;49.09;101294.72;5009717;28;19914;-76
2023/11/23 12:14:37;;;;;;;;;;;;;;;13.20;48.61;101287.97;4994287;28;19922;-78
2023/11/23 12:17:27;;;;;;;;;;;;;;;13.30;49.67;101284.94;4992210;28;19918;-78
2023/11/23 12:20:16;;;;;;;;;;;;;;;13.46;48.18;101274.34;4986008;28;19922;-79
2023/11/23 12:23:08;;;;;;;;;;;;;;;13.39;48.58;101266.63;4992743;28;19914;-78
2023/11/23 12:26:00;;;;;;;;;;;;;;;13.43;48.90;101264.84;4993298;28;19913;-79
2023/11/23 12:28:52;;;;;;;;;;;;;;;13.57;48.53;101259.22;4988515;28;20379;-77
2023/11/23 12:31:44;;;;;;;;;;;;;;;13.51;48.49;101258.56;5005552;28;20646;-77
2023/11/23 12:34:33;;;;;;;;;;;;;;;13.50;48.82;101251.53;4994286;28;19918;-77
2023/11/23 12:37:25;;;;;;;;;;;;;;;13.60;47.97;101243.00;4993888;28;19918;-77
2023/11/23 12:40:17;;;;;;;;;;;;;;;13.64;47.75;101232.22;4996025;28;19913;-77
2023/11/23 12:43:07;;;;;;;;;;;;;;;13.88;48.35;101234.44;4994103;28;19913;-76
2023/11/23 12:45:59;;;;;;;;;;;;;;;14.06;47.18;101228.63;4984141;28;19913;-77
2023/11/23 12:48:48;;;;;;;;;;;;;;;14.16;46.91;101227.47;4991374;28;19917;-77
2023/11/23 12:51:40;;;;;;;;;;;;;;;14.61;46.65;101227.00;4998608;28;19917;-78
2023/11/23 12:54:30;;;;;;;;;;;;;;;19.54;36.16;101219.00;4992293;28;20387;-77
2023/11/23 12:57:22;;;;;;;;;;;;;;;22.13;31.39;101224.56;4993696;28;19913;-77
2023/11/23 13:00:21;;;;;;;;;;;;;;;23.21;29.59;101229.75;4988202;28;19914;-77
2023/11/23 13:03:13;;;;;;;;;;;;;;;24.94;26.79;101213.41;4990756;28;19913;-77
2023/11/23 13:06:05;;;;;;;;;;;;;;;23.65;27.61;101207.34;4993805;28;19917;-78
2023/11/23 13:08:56;;;;;;;;;;;;;;;24.55;26.41;101201.53;4993846;28;19914;-78
2023/11/23 13:11:49;;;;;;;;;;;;;;;23.50;27.58;101198.19;4988702;28;20310;-78
2023/11/23 13:14:41;;;;;;;;;;;;;;;23.83;27.64;101183.19;4989130;28;19921;-76
2023/11/23 13:17:33;;;;;;;;;;;;;;;23.49;27.78;101174.38;4990926;28;19914;-76
2023/11/23 13:20:25;;;;;;;;;;;;;;;22.80;27.97;101166.13;4991696;28;19918;-78
2023/11/23 13:23:14;;;;;;;;;;;;;;;22.45;28.79;101158.31;4992553;28;19914;-77
2023/11/23 13:26:06;;;;;;;;;;;;;;;22.24;29.22;101160.13;4995052;28;19917;-77
2023/11/23 13:28:57;;;;;;;;;;;;;;;22.49;29.24;101156.38;4985499;28;19914;-77
2023/11/23 13:31:57;;;;;;;11.25;4.60;;;;;;;19.09;34.04;101139.66;4974746;28;20399;-77
2023/11/23 13:34:52;;;;;;;9.27;4.10;;;;;;;16.86;38.02;101131.97;4993339;28;20045;-78
2023/11/23 13:37:46;;;;;;;9.65;3.70;;;;;;;16.38;39.08;101132.00;4993528;28;20514;-78
2023/11/23 13:40:41;;;;;;;7.50;3.72;;;;;;;15.75;40.51;101128.75;4985245;28;20038;-78
2023/11/23 13:43:35;;;;;;;7.38;4.10;;;;;;;15.77;41.27;101126.47;4994709;28;20046;-78
2023/11/23 13:46:25;;;;;;;10.93;4.10;;;;;;;15.41;40.86;101119.72;4983686;28;20069;-78
2023/11/23 13:49:20;;;;;;;;;;;;;;;15.33;41.07;101114.34;4996043;28;20286;-78
2023/11/23 13:52:12;;;;;;;;;;;;;;;15.25;41.24;101109.72;5006373;28;19917;-79
2023/11/23 13:55:04;;;;;;;;;;;;;;;15.14;41.77;101108.53;5006834;28;20378;-78
2023/11/23 13:57:54;;;;;;;;;;;;;;;15.10;42.17;101096.66;4992841;28;19914;-79
2023/11/23 14:00:47;;;;;;;;;;;;;;;15.08;42.49;101094.28;5009495;28;19914;-78
2023/11/23 14:03:38;;;;;;;;;;;;;;;15.10;42.60;101091.19;4994299;28;20287;-79
2023/11/23 14:06:29;;;;;;;;;;;;;;;15.18;43.15;101093.84;5007332;28;19913;-78
2023/11/23 14:09:19;;;;;;;;;;;;;;;14.98;42.94;101086.47;4994222;28;20378;-78
2023/11/23 14:12:11;;;;;;;;;;;;;;;14.84;43.09;101086.72;4995660;28;19913;-78
2023/11/23 14:15:03;;;;;;;;;;;;;;;14.79;43.47;101072.44;5011965;28;19917;-78
2023/11/23 14:17:56;;;;;;;;;;;;;;;14.92;43.43;101080.38;4993028;28;20340;-78
2023/11/23 14:20:48;;;;;;;;;;;;;;;14.95;43.32;101085.19;4993652;28;20375;-78
2023/11/23 14:23:37;;;;;;;;;;;;;;;14.85;43.74;101093.00;4992212;28;19914;-78
2023/11/23 14:26:29;;;;;;;;;;;;;;;14.81;43.68;101083.84;4993132;28;19921;-78
2023/11/23 14:29:22;;;;;;;;;;;;;;;14.95;43.55;101090.66;4992860;28;19914;-78
2023/11/23 14:32:12;;;;;;;;;;;;;;;14.70;42.50;101077.19;4997228;28;19913;-78
2023/11/23 14:35:03;;;;;;;;;;;;;;;14.63;42.43;101085.91;4981405;28;19918;-78
2023/11/23 14:38:00;;;;;;;;;;;;;;;14.76;42.38;101081.31;4991723;28;19921;-80
2023/11/23 14:40:52;;;;;;;;;;;;;;;14.70;42.26;101088.13;4993291;28;19913;-78
2023/11/23 14:43:42;;;;;;;;;;;;;;;14.75;42.38;101090.66;4994904;28;19914;-78
2023/11/23 14:46:31;;;;;;;;;;;;;;;14.73;43.38;101082.00;4974289;28;19914;-79